Time;durP1;ratioP1;P1;durP2;ratioP2;P2;SDS_P1;SDS_P2;PMS_P1;PMS_P2;Temp;Humidity;BMP_temperature;BMP_pressure;BME280_temperature;BME280_humidity;BME280_pressure;Samples;Min_cycle;Max_cycle;Signal;HPM_P1;HPM_P2
2024/03/05 00:00:10;;;;;;;2.25;2.05;;;23.00;55.10;;;;;;5041367;28;20025;-34
2024/03/05 00:02:40;;;;;;;2.10;1.90;;;23.00;55.10;;;;;;5044292;28;20041;-34
2024/03/05 00:05:07;;;;;;;2.00;1.90;;;23.00;55.00;;;;;;5047410;28;20036;-33
2024/03/05 00:07:35;;;;;;;;;;;23.00;55.10;;;;;;5054138;28;20136;-34
2024/03/05 00:10:20;;;;;;;;;;;22.90;55.50;;;;;;5062582;28;19908;-41
2024/03/05 00:12:47;;;;;;;2.20;2.00;;;22.90;55.00;;;;;;5067627;28;19935;-33
2024/03/05 00:15:13;;;;;;;2.20;2.03;;;22.90;55.20;;;;;;5083600;28;20033;-34
2024/03/05 00:17:39;;;;;;;2.50;2.22;;;23.00;55.10;;;;;;5052316;28;20035;-34
2024/03/05 00:20:11;;;;;;;1.98;1.88;;;23.00;55.10;;;;;;5085266;28;20024;-34
2024/03/05 00:22:37;;;;;;;1.98;1.88;;;23.00;55.10;;;;;;5085148;28;20028;-33
2024/03/05 00:25:04;;;;;;;2.10;1.90;;;22.90;55.10;;;;;;5085265;28;20032;-34
2024/03/05 00:27:30;;;;;;;2.07;1.93;;;22.90;55.10;;;;;;5082619;28;20033;-34
2024/03/05 00:29:56;;;;;;;2.30;2.10;;;22.90;55.10;;;;;;5084792;28;20277;-33
2024/03/05 00:32:22;;;;;;;2.03;1.92;;;22.90;55.00;;;;;;5084202;28;20025;-33
2024/03/05 00:34:48;;;;;;;2.10;1.90;;;22.90;55.00;;;;;;5084976;28;20047;-33
2024/03/05 00:37:15;;;;;;;2.50;1.98;;;22.80;55.10;;;;;;5085108;28;20123;-40
2024/03/05 00:39:41;;;;;;;2.17;2.03;;;22.90;55.30;;;;;;5084489;28;20046;-33
2024/03/05 00:42:08;;;;;;;2.08;1.98;;;22.90;55.20;;;;;;5082362;28;20399;-34
2024/03/05 00:44:34;;;;;;;3.42;2.00;;;22.90;55.10;;;;;;5083092;28;20063;-33
2024/03/05 00:47:00;;;;;;;2.20;2.00;;;22.90;55.10;;;;;;5083342;28;20127;-34
2024/03/05 00:49:26;;;;;;;2.42;1.95;;;22.80;55.10;;;;;;5083839;28;20080;-43
2024/03/05 00:51:52;;;;;;;3.20;1.93;;;22.80;55.10;;;;;;5075936;28;20040;-33
2024/03/05 00:54:18;;;;;;;2.28;1.80;;;22.80;55.00;;;;;;5082842;28;20057;-33
2024/03/05 00:56:45;;;;;;;2.38;1.85;;;22.80;55.00;;;;;;5084427;28;20486;-33
2024/03/05 00:59:11;;;;;;;2.05;1.95;;;22.80;55.10;;;;;;5084099;28;20039;-34
2024/03/05 01:01:37;;;;;;;2.40;2.20;;;22.80;55.20;;;;;;5075683;28;20036;-34
2024/03/05 01:04:04;;;;;;;3.90;1.90;;;22.80;55.20;;;;;;5080513;28;20033;-33
2024/03/05 01:06:31;;;;;;;2.72;2.17;;;22.80;55.10;;;;;;5082061;28;20096;-34
2024/03/05 01:08:57;;;;;;;2.97;2.03;;;22.80;55.10;;;;;;5084376;28;20063;-33
2024/03/05 01:11:23;;;;;;;2.75;2.10;;;22.80;55.10;;;;;;5081957;28;20738;-34
2024/03/05 01:13:49;;;;;;;2.33;2.13;;;22.70;55.00;;;;;;5078012;28;20131;-35
2024/03/05 01:16:15;;;;;;;2.22;1.75;;;22.70;55.00;;;;;;5084193;28;20055;-34
2024/03/05 01:18:42;;;;;;;2.03;1.63;;;22.70;55.10;;;;;;5083637;28;20020;-34
2024/03/05 01:21:08;;;;;;;2.17;2.00;;;22.70;55.20;;;;;;5080492;28;20791;-34
2024/03/05 01:23:34;;;;;;;3.15;1.92;;;22.80;55.20;;;;;;5083886;28;20032;-34
2024/03/05 01:26:00;;;;;;;2.25;2.05;;;22.80;55.10;;;;;;5084347;28;20119;-34
2024/03/05 01:28:29;;;;;;;2.17;2.00;;;22.80;55.00;;;;;;5081677;28;20028;-34
2024/03/05 01:30:55;;;;;;;1.92;1.80;;;22.70;55.00;;;;;;5083038;28;20058;-34
2024/03/05 01:33:22;;;;;;;2.08;1.88;;;22.70;55.00;;;;;;5082733;28;20032;-34
2024/03/05 01:35:49;;;;;;;2.05;1.85;;;22.70;55.10;;;;;;5072842;28;20087;-34
2024/03/05 01:38:15;;;;;;;2.10;1.88;;;22.70;55.10;;;;;;5083769;28;20044;-34
2024/03/05 01:40:41;;;;;;;2.17;1.98;;;22.70;55.10;;;;;;5082602;28;20024;-34
2024/03/05 01:43:08;;;;;;;1.95;1.80;;;22.70;55.20;;;;;;5075832;28;20485;-34
2024/03/05 01:45:34;;;;;;;2.00;1.80;;;22.70;55.10;;;;;;5045055;28;20032;-34
2024/03/05 01:48:01;;;;;;;2.10;1.88;;;22.70;55.10;;;;;;5067847;28;20297;-34
2024/03/05 01:50:28;;;;;;;2.13;1.90;;;22.70;55.00;;;;;;5048479;28;20021;-34
2024/03/05 01:52:54;;;;;;;;;;;22.70;55.00;;;;;;5063966;28;20100;-34
2024/03/05 01:55:20;;;;;;;2.40;2.00;;;22.60;55.00;;;;;;5067376;28;19916;-38
2024/03/05 01:57:47;;;;;;;1.92;1.70;;;22.60;55.00;;;;;;5062838;28;20036;-34
2024/03/05 02:00:15;;;;;;;2.05;1.85;;;22.60;55.00;;;;;;5044359;28;20052;-34
2024/03/05 02:02:43;;;;;;;2.10;1.90;;;22.60;55.20;;;;;;5046195;28;20032;-33
2024/03/05 02:05:09;;;;;;;2.70;1.95;;;22.60;55.10;;;;;;5066815;28;20025;-34
2024/03/05 02:07:36;;;;;;;2.95;1.90;;;22.70;55.10;;;;;;5067658;28;20159;-33
2024/03/05 02:10:07;;;;;;;;;;;22.60;55.00;;;;;;5068004;28;20024;-34
2024/03/05 02:12:37;;;;;;;2.15;1.85;;;22.60;55.00;;;;;;5070158;28;19908;-34
2024/03/05 02:15:05;;;;;;;2.03;1.85;;;22.60;55.00;;;;;;5083098;28;20040;-33
2024/03/05 02:17:31;;;;;;;2.55;1.70;;;22.60;55.10;;;;;;5081780;28;20062;-33
2024/03/05 02:19:57;;;;;;;1.90;1.80;;;22.50;55.00;;;;;;5082967;28;20028;-33
2024/03/05 02:22:23;;;;;;;1.83;1.73;;;22.50;55.00;;;;;;5063374;28;20319;-33
2024/03/05 02:24:49;;;;;;;1.73;1.58;;;22.60;55.10;;;;;;5083121;28;20113;-33
2024/03/05 02:27:15;;;;;;;2.00;1.77;;;22.60;55.10;;;;;;5081536;28;20052;-33
2024/03/05 02:29:42;;;;;;;2.03;1.70;;;22.60;55.00;;;;;;5064177;28;20028;-33
2024/03/05 02:32:09;;;;;;;2.13;1.92;;;22.60;55.00;;;;;;5082802;28;20039;-34
2024/03/05 02:34:35;;;;;;;2.13;1.70;;;22.60;55.00;;;;;;5046563;28;20124;-33
2024/03/05 02:37:01;;;;;;;1.67;1.58;;;22.50;54.90;;;;;;5082567;28;20062;-33
2024/03/05 02:39:27;;;;;;;2.00;1.80;;;22.50;54.90;;;;;;5082226;28;20027;-33
2024/03/05 02:41:56;;;;;;;1.77;1.60;;;22.50;54.90;;;;;;5082490;28;20025;-33
2024/03/05 02:44:22;;;;;;;1.75;1.65;;;22.50;55.00;;;;;;5074662;28;20020;-33
2024/03/05 02:46:50;;;;;;;2.35;1.55;;;22.50;55.10;;;;;;5082224;28;20037;-33
2024/03/05 02:49:16;;;;;;;1.77;1.67;;;22.60;55.00;;;;;;5076860;28;20512;-33
2024/03/05 02:51:44;;;;;;;1.77;1.67;;;22.60;55.00;;;;;;5081342;28;20028;-33
2024/03/05 02:54:11;;;;;;;1.83;1.70;;;22.50;55.00;;;;;;5081678;28;20031;-33
2024/03/05 02:56:37;;;;;;;4.40;1.73;;;22.50;54.90;;;;;;5074575;28;20032;-33
2024/03/05 02:59:03;;;;;;;1.67;1.57;;;22.50;54.90;;;;;;5079553;28;20328;-33
2024/03/05 03:01:29;;;;;;;2.63;1.90;;;22.50;55.10;;;;;;5071517;28;20293;-33
2024/03/05 03:03:56;;;;;;;3.25;1.60;;;22.40;55.10;;;;;;5078612;28;20115;-34
2024/03/05 03:06:22;;;;;;;2.00;1.80;;;22.50;55.10;;;;;;5073218;28;20121;-33
2024/03/05 03:08:48;;;;;;;2.35;1.48;;;22.50;55.00;;;;;;5061926;28;20044;-33
2024/03/05 03:11:17;;;;;;;1.90;1.80;;;22.50;55.10;;;;;;5062152;28;20497;-33
2024/03/05 03:13:44;;;;;;;2.80;1.65;;;22.50;55.10;;;;;;5058118;28;20029;-33
2024/03/05 03:16:10;;;;;;;1.80;1.67;;;22.50;55.00;;;;;;5058975;28;20032;-39
2024/03/05 03:18:36;;;;;;;3.37;2.20;;;22.50;55.10;;;;;;5061440;28;20041;-33
2024/03/05 03:21:03;;;;;;;10.75;2.88;;;22.50;55.40;;;;;;5061814;28;20039;-33
2024/03/05 03:23:29;;;;;;;11.45;3.47;;;22.50;57.30;;;;;;5060949;28;20036;-33
2024/03/05 03:25:58;;;;;;;6.13;2.92;;;22.50;58.00;;;;;;5062035;28;20041;-33
2024/03/05 03:28:24;;;;;;;5.95;2.75;;;22.40;58.20;;;;;;5061040;28;20048;-33
2024/03/05 03:31:11;;;;;;;4.78;3.13;;;22.40;58.40;;;;;;5061736;28;20029;-33
2024/03/05 03:33:39;;;;;;;3.97;2.45;;;22.40;58.20;;;;;;4971813;28;20038;-41
2024/03/05 03:36:05;;;;;;;5.82;2.38;;;22.40;58.10;;;;;;4972327;28;20106;-33
2024/03/05 03:38:31;;;;;;;5.10;2.80;;;22.40;58.60;;;;;;4972218;28;20043;-33
2024/03/05 03:40:57;;;;;;;7.15;3.05;;;22.40;57.90;;;;;;4980704;28;20066;-33
2024/03/05 03:43:23;;;;;;;4.45;2.63;;;22.40;57.70;;;;;;4966580;28;20043;-34
2024/03/05 03:45:50;;;;;;;5.65;3.10;;;22.30;57.60;;;;;;4968369;28;20858;-34
2024/03/05 03:48:16;;;;;;;4.90;2.70;;;22.30;57.40;;;;;;4968818;28;20049;-34
2024/03/05 03:50:43;;;;;;;6.60;2.80;;;22.30;57.30;;;;;;4969565;28;20090;-33
2024/03/05 03:53:10;;;;;;;4.63;3.08;;;22.30;57.10;;;;;;4975986;28;20041;-33
2024/03/05 03:55:37;;;;;;;5.93;3.25;;;22.30;57.10;;;;;;4977074;28;20046;-38
2024/03/05 03:58:03;;;;;;;;;;;22.20;56.90;;;;;;4964665;28;20140;-32
2024/03/05 04:00:29;;;;;;;7.30;3.20;;;22.20;56.90;;;;;;4974177;28;20015;-33
2024/03/05 04:02:56;;;;;;;4.13;3.05;;;22.20;56.80;;;;;;4980254;28;20111;-33
2024/03/05 04:05:22;;;;;;;5.68;3.35;;;22.20;56.60;;;;;;4973984;28;20058;-33
2024/03/05 04:07:48;;;;;;;5.03;2.70;;;22.20;56.50;;;;;;4979175;28;20051;-33
2024/03/05 04:10:15;;;;;;;6.78;2.70;;;22.10;56.40;;;;;;5000870;28;20033;-33
2024/03/05 04:12:41;;;;;;;4.93;2.92;;;22.10;56.40;;;;;;5060145;28;20029;-33
2024/03/05 04:15:08;;;;;;;4.20;2.65;;;22.10;56.30;;;;;;5061164;28;20037;-33
2024/03/05 04:17:37;;;;;;;3.80;2.90;;;22.10;56.30;;;;;;5059611;28;20041;-33
2024/03/05 04:20:04;;;;;;;3.53;2.92;;;22.00;56.20;;;;;;5060472;28;20140;-33
2024/03/05 04:22:30;;;;;;;;;;;22.00;56.10;;;;;;5060254;28;20060;-33
2024/03/05 04:24:57;;;;;;;5.55;2.95;;;22.00;56.10;;;;;;5044139;28;20000;-38
2024/03/05 04:27:24;;;;;;;3.95;2.75;;;22.00;56.00;;;;;;5052417;28;20072;-33
2024/03/05 04:29:56;;;;;;;5.18;2.92;;;21.90;55.90;;;;;;5061475;28;20029;-32
2024/03/05 04:32:26;;;;;;;4.13;2.28;;;21.90;55.90;;;;;;5052481;28;20049;-33
2024/03/05 04:35:00;;;;;;;3.60;2.83;;;21.90;55.90;;;;;;5043572;28;20078;-33
2024/03/05 04:37:30;;;;;;;5.43;2.67;;;21.90;55.80;;;;;;5057844;28;20054;-33
2024/03/05 04:39:57;;;;;;;4.25;2.75;;;21.90;55.80;;;;;;5046518;28;20029;-33
2024/03/05 04:42:24;;;;;;;2.60;2.40;;;21.80;55.60;;;;;;5056987;28;20037;-33
2024/03/05 04:44:51;;;;;;;;;;;21.80;55.70;;;;;;5040982;28;20072;-35
2024/03/05 04:47:17;;;;;;;5.05;2.70;;;21.80;55.60;;;;;;5043326;28;19916;-33
2024/03/05 04:49:43;;;;;;;3.67;2.28;;;21.70;55.60;;;;;;5044440;28;20025;-37
2024/03/05 04:52:10;;;;;;;2.97;2.65;;;21.70;55.60;;;;;;5040216;28;20060;-33
2024/03/05 04:54:36;;;;;;;3.33;2.43;;;21.70;55.60;;;;;;5042009;28;20029;-33
2024/03/05 04:57:05;;;;;;;2.50;2.30;;;21.70;55.70;;;;;;5043497;28;20029;-33
2024/03/05 04:59:31;;;;;;;3.40;2.80;;;21.60;55.50;;;;;;5045300;28;20038;-35
2024/03/05 05:01:58;;;;;;;5.47;2.53;;;21.70;55.60;;;;;;5042046;28;20027;-33
2024/03/05 05:04:24;;;;;;;3.20;2.77;;;21.60;55.50;;;;;;5046559;28;20041;-33
2024/03/05 05:06:50;;;;;;;2.67;2.30;;;21.60;55.50;;;;;;5054084;28;20057;-33
2024/03/05 05:09:20;;;;;;;2.97;2.50;;;21.60;55.50;;;;;;5063417;28;20029;-33
2024/03/05 05:11:47;;;;;;;3.45;2.75;;;21.60;55.40;;;;;;5066126;28;20029;-33
2024/03/05 05:14:13;;;;;;;2.92;2.40;;;21.60;55.40;;;;;;5083045;28;20032;-33
2024/03/05 05:16:39;;;;;;;3.47;2.57;;;21.50;55.40;;;;;;5084013;28;20028;-33
2024/03/05 05:19:05;;;;;;;4.10;2.50;;;21.50;55.40;;;;;;5082522;28;20280;-33
2024/03/05 05:21:33;;;;;;;3.28;2.58;;;21.50;55.40;;;;;;5082347;28;20107;-33
2024/03/05 05:23:59;;;;;;;3.20;2.60;;;21.50;55.40;;;;;;5077472;28;20044;-33
2024/03/05 05:26:25;;;;;;;2.53;2.33;;;21.50;55.70;;;;;;5065261;28;20045;-33
2024/03/05 05:28:51;;;;;;;2.63;2.42;;;21.50;55.80;;;;;;5066769;28;20055;-33
2024/03/05 05:31:27;;;;;;;3.17;2.33;;;21.50;55.70;;;;;;5067801;28;20032;-33
2024/03/05 05:33:56;;;;;;;3.80;2.10;;;21.50;55.70;;;;;;5063008;28;20089;-33
2024/03/05 05:36:22;;;;;;;2.60;2.20;;;21.50;55.80;;;;;;5068234;28;20095;-33
2024/03/05 05:38:51;;;;;;;2.55;2.20;;;21.50;55.70;;;;;;5067291;28;20063;-33
2024/03/05 05:41:18;;;;;;;2.40;2.20;;;21.50;55.80;;;;;;5064334;28;20027;-33
2024/03/05 05:43:45;;;;;;;2.50;2.30;;;21.40;55.70;;;;;;5060223;28;20029;-33
2024/03/05 05:46:21;;;;;;;2.50;2.03;;;21.40;55.60;;;;;;5063139;28;20064;-33
2024/03/05 05:48:49;;;;;;;2.92;2.30;;;21.40;55.60;;;;;;5060897;28;20036;-33
2024/03/05 05:51:15;;;;;;;;;;;21.40;55.80;;;;;;5062138;28;20041;-33
2024/03/05 05:53:41;;;;;;;2.78;2.13;;;21.50;55.90;;;;;;5063513;28;19917;-34
2024/03/05 05:56:09;;;;;;;2.00;1.80;;;21.50;55.70;;;;;;5066905;28;20037;-33
2024/03/05 05:58:35;;;;;;;2.40;2.20;;;21.40;55.70;;;;;;5063776;28;20040;-34
2024/03/05 06:01:09;;;;;;;2.38;1.95;;;21.40;55.70;;;;;;5065728;28;20040;-34
2024/03/05 06:03:40;;;;;;;2.08;1.90;;;21.40;55.80;;;;;;5066704;28;20096;-38
2024/03/05 06:06:07;;;;;;;2.80;2.28;;;21.40;55.80;;;;;;5065338;28;20032;-33
2024/03/05 06:08:34;;;;;;;;;;;21.40;55.70;;;;;;5067026;28;20099;-34
2024/03/05 06:11:01;;;;;;;3.83;2.20;;;21.30;55.60;;;;;;5064180;28;21147;-34
2024/03/05 06:13:27;;;;;;;2.38;2.13;;;21.30;55.70;;;;;;5073072;28;20024;-34
2024/03/05 06:15:54;;;;;;;2.50;2.25;;;21.40;55.90;;;;;;5076146;28;20035;-34
2024/03/05 06:18:20;;;;;;;2.20;2.00;;;21.40;55.80;;;;;;5083139;28;20095;-34
2024/03/05 06:20:48;;;;;;;2.15;1.95;;;21.40;55.70;;;;;;5078303;28;20084;-34
2024/03/05 06:23:14;;;;;;;;;;;21.40;55.70;;;;;;5083357;28;20054;-34
2024/03/05 06:25:40;;;;;;;2.05;1.85;;;21.40;55.80;;;;;;5082813;28;19920;-33
2024/03/05 06:28:09;;;;;;;2.00;1.90;;;21.30;55.70;;;;;;5080742;28;20124;-34
2024/03/05 06:30:35;;;;;;;2.67;2.22;;;21.30;55.70;;;;;;5082436;28;20043;-33
2024/03/05 06:33:04;;;;;;;2.50;1.83;;;21.30;55.80;;;;;;5082671;28;20032;-38
2024/03/05 06:35:31;;;;;;;2.20;2.00;;;21.40;55.90;;;;;;5055943;28;20028;-33
2024/03/05 06:38:00;;;;;;;2.20;2.00;;;21.40;55.80;;;;;;5082906;28;20076;-33
2024/03/05 06:40:26;;;;;;;2.85;2.00;;;21.40;55.80;;;;;;5076974;28;20029;-33
2024/03/05 06:42:52;;;;;;;4.22;2.08;;;21.40;55.90;;;;;;5053763;28;20024;-34
2024/03/05 06:45:27;;;;;;;3.20;2.00;;;21.30;56.00;;;;;;5067187;28;20032;-33
2024/03/05 06:47:56;;;;;;;2.42;1.90;;;21.30;56.10;;;;;;5070370;28;20040;-33
2024/03/05 06:50:34;;;;;;;2.75;2.15;;;21.30;55.90;;;;;;5066688;28;20021;-33
2024/03/05 06:58:35;;;;;;;2.38;2.15;;;21.30;55.80;;;;;;5080240;28;20075;-32
2024/03/05 07:01:07;;;;;;;3.63;2.10;;;21.30;55.90;;;;;;5082376;28;20028;-32
2024/03/05 07:03:34;;;;;;;2.63;2.10;;;21.30;55.80;;;;;;5079936;28;20082;-32
2024/03/05 07:06:07;;;;;;;2.30;2.10;;;21.40;55.90;;;;;;5082187;28;20036;-33
2024/03/05 07:08:43;;;;;;;3.00;1.95;;;21.40;55.90;;;;;;5064189;28;20053;-33
2024/03/05 07:11:15;;;;;;;2.28;2.08;;;21.30;55.70;;;;;;5053692;28;20115;-33
2024/03/05 07:13:48;;;;;;;2.92;2.20;;;21.30;55.80;;;;;;5057294;28;20044;-33
2024/03/05 07:16:18;;;;;;;2.30;2.13;;;21.30;55.70;;;;;;5059699;28;20029;-33
2024/03/05 07:18:47;;;;;;;2.33;2.03;;;21.30;55.70;;;;;;5040104;28;20096;-33
2024/03/05 07:21:13;;;;;;;2.33;1.90;;;21.30;55.70;;;;;;5057896;28;20032;-35
2024/03/05 07:23:40;;;;;;;2.55;2.10;;;21.30;55.60;;;;;;5058451;28;20040;-34
2024/03/05 07:26:06;;;;;;;2.83;2.20;;;21.30;55.60;;;;;;5062149;28;20036;-34
2024/03/05 07:28:32;;;;;;;2.90;2.17;;;21.30;55.50;;;;;;5061592;28;20045;-34
2024/03/05 07:30:59;;;;;;;2.45;2.10;;;21.30;55.50;;;;;;5061621;28;20033;-34
2024/03/05 07:33:26;;;;;;;3.05;2.60;;;21.30;55.50;;;;;;5061036;28;20493;-34
2024/03/05 07:35:52;;;;;;;2.40;2.20;;;21.20;55.40;;;;;;5060702;28;20044;-34
2024/03/05 07:38:18;;;;;;;4.07;2.22;;;21.20;55.40;;;;;;5059486;28;20037;-34
2024/03/05 07:40:47;;;;;;;2.50;2.00;;;21.20;55.30;;;;;;5054653;28;20024;-39
2024/03/05 07:43:13;;;;;;;2.38;2.17;;;21.20;55.30;;;;;;5061332;28;20041;-34
2024/03/05 07:45:40;;;;;;;3.22;2.08;;;21.20;55.30;;;;;;5059597;28;20040;-34
2024/03/05 07:48:06;;;;;;;2.78;2.10;;;21.20;55.30;;;;;;5060794;28;20072;-34
2024/03/05 07:50:33;;;;;;;2.67;2.00;;;21.20;55.30;;;;;;5061502;28;20029;-34
2024/03/05 07:52:59;;;;;;;2.45;2.13;;;21.20;55.60;;;;;;5061190;28;20033;-34
2024/03/05 07:55:26;;;;;;;3.05;2.35;;;21.30;55.50;;;;;;5061271;28;20032;-34
2024/03/05 07:57:56;;;;;;;2.33;2.00;;;21.30;55.50;;;;;;5061707;28;20032;-34
2024/03/05 08:00:23;;;;;;;2.70;2.28;;;21.20;55.40;;;;;;5060420;28;20033;-34
2024/03/05 08:02:53;;;;;;;2.42;2.22;;;21.20;55.30;;;;;;5061575;28;20047;-34
2024/03/05 08:05:21;;;;;;;3.22;2.50;;;21.20;55.30;;;;;;5061810;28;20098;-34
2024/03/05 08:08:02;;;;;;;2.42;2.05;;;21.20;55.40;;;;;;5072252;28;20053;-34
2024/03/05 08:10:29;;;;;;;2.28;2.08;;;21.20;55.30;;;;;;5075323;28;20078;-33
2024/03/05 08:12:55;;;;;;;2.40;2.00;;;21.20;55.50;;;;;;5073603;28;20036;-33
2024/03/05 08:15:22;;;;;;;2.35;2.15;;;21.20;55.50;;;;;;5061854;28;20517;-32
2024/03/05 08:17:49;;;;;;;2.58;2.33;;;21.20;55.40;;;;;;5064839;28;20043;-33
2024/03/05 08:20:16;;;;;;;3.13;2.63;;;21.20;55.50;;;;;;5065602;28;20120;-32
2024/03/05 08:22:45;;;;;;;2.67;2.30;;;21.20;55.40;;;;;;5061749;28;20037;-33
2024/03/05 08:25:18;;;;;;;2.72;2.20;;;21.20;55.50;;;;;;5064686;28;20069;-33
2024/03/05 08:27:44;;;;;;;3.70;2.40;;;21.20;55.40;;;;;;5063616;28;20048;-33
2024/03/05 08:30:15;;;;;;;2.53;2.20;;;21.10;55.30;;;;;;5061864;28;20101;-33
2024/03/05 08:32:41;;;;;;;2.25;1.88;;;21.20;55.50;;;;;;5064455;28;20041;-33
2024/03/05 08:35:13;;;;;;;2.90;2.08;;;21.20;55.50;;;;;;5064893;28;20112;-32
2024/03/05 08:37:40;;;;;;;2.75;2.55;;;21.30;55.40;;;;;;5065100;28;20041;-33
2024/03/05 08:40:13;;;;;;;2.47;2.10;;;21.20;55.40;;;;;;5071372;28;20033;-33
2024/03/05 08:42:49;;;;;;;5.88;2.35;;;21.20;55.30;;;;;;5054602;28;20082;-32
2024/03/05 08:45:18;;;;;;;2.40;2.08;;;21.20;55.40;;;;;;5084953;28;20055;-35
2024/03/05 08:47:46;;;;;;;3.65;2.10;;;21.20;55.30;;;;;;5083819;28;20036;-33
2024/03/05 08:50:12;;;;;;;4.25;2.33;;;21.10;55.40;;;;;;5081773;28;20024;-33
2024/03/05 08:52:39;;;;;;;2.23;2.00;;;21.10;55.40;;;;;;5083457;28;20048;-33
2024/03/05 08:55:08;;;;;;;2.35;2.10;;;21.20;55.40;;;;;;5083065;28;20066;-32
2024/03/05 08:57:43;;;;;;;3.15;2.15;;;21.20;55.30;;;;;;5082378;28;20576;-33
2024/03/05 09:00:17;;;;;;;2.40;2.20;;;21.20;55.80;;;;;;5079620;28;20024;-32
2024/03/05 09:02:46;;;;;;;3.20;2.30;;;21.20;55.40;;;;;;5084032;28;20024;-34
2024/03/05 09:05:13;;;;;;;2.83;2.20;;;21.20;55.30;;;;;;5084325;28;20028;-34
2024/03/05 09:07:40;;;;;;;2.88;2.28;;;21.20;55.40;;;;;;5083954;28;20055;-33
2024/03/05 09:10:07;;;;;;;2.38;2.17;;;21.10;55.30;;;;;;5084535;28;20029;-33
2024/03/05 09:12:33;;;;;;;2.25;2.05;;;21.10;55.30;;;;;;5078053;28;20556;-33
2024/03/05 09:14:59;;;;;;;3.28;2.35;;;21.10;55.40;;;;;;5066236;28;20021;-33
2024/03/05 09:17:26;;;;;;;2.33;2.10;;;21.20;55.40;;;;;;5083958;28;20083;-33
2024/03/05 09:19:52;;;;;;;2.23;2.03;;;21.20;55.20;;;;;;5084176;28;20029;-33
2024/03/05 09:22:19;;;;;;;2.60;2.15;;;21.20;55.30;;;;;;5080584;28;20037;-33
2024/03/05 09:24:45;;;;;;;2.95;2.20;;;21.20;55.30;;;;;;5082161;28;20036;-33
2024/03/05 09:27:12;;;;;;;2.60;2.40;;;21.20;55.40;;;;;;5084143;28;20040;-33
2024/03/05 09:29:58;;;;;;;1.55;1.45;;;21.20;55.90;;;;;;5083546;28;20036;-33
2024/03/05 09:32:24;;;;;;;2.63;2.42;;;21.10;55.30;;;;;;4980694;28;20042;-33
2024/03/05 09:34:50;;;;;;;2.70;2.40;;;21.20;55.40;;;;;;4975680;28;20080;-33
2024/03/05 09:37:16;;;;;;;2.92;2.53;;;21.20;55.40;;;;;;4982342;28;20042;-33
2024/03/05 09:39:43;;;;;;;2.80;2.50;;;21.20;55.30;;;;;;4979294;28;20570;-33
2024/03/05 09:44:55;;;;;;;3.20;2.70;;;21.20;55.30;;;;;;4980624;28;20700;-33
2024/03/05 09:47:22;;;;;;;3.38;2.45;;;21.20;55.30;;;;;;4980009;28;20578;-33
2024/03/05 09:50:08;;;;;;;3.42;2.30;;;21.10;55.30;;;;;;4949146;29;20043;-33
2024/03/05 09:52:34;;;;;;;4.18;2.30;;;21.20;55.30;;;;;;4934971;29;20046;-34
2024/03/05 09:55:00;;;;;;;2.97;2.20;;;21.10;55.30;;;;;;4943341;29;20035;-33
2024/03/05 09:57:28;;;;;;;3.10;2.60;;;21.20;55.30;;;;;;4943216;29;20031;-34
2024/03/05 09:59:55;;;;;;;2.65;2.42;;;21.20;55.20;;;;;;4921602;29;20228;-34
2024/03/05 10:02:22;;;;;;;3.22;2.55;;;21.20;55.80;;;;;;4942868;29;20043;-38
2024/03/05 10:04:48;;;;;;;2.30;2.10;;;21.20;55.20;;;;;;4944035;29;20110;-33
2024/03/05 10:07:26;;;;;;;2.55;2.30;;;21.20;55.20;;;;;;4949483;29;20103;-33
2024/03/05 10:10:07;;;;;;;4.38;2.63;;;21.20;55.20;;;;;;4987349;28;20088;-33
2024/03/05 10:12:34;;;;;;;4.05;2.60;;;21.10;55.20;;;;;;5013439;28;20030;-33
2024/03/05 10:15:20;;;;;;;2.35;2.15;;;21.20;55.30;;;;;;5008920;28;20193;-34
2024/03/05 10:17:50;;;;;;;3.75;2.10;;;21.20;55.20;;;;;;5005775;28;20155;-33
2024/03/05 10:20:36;;;;;;;2.78;2.13;;;21.20;55.20;;;;;;5004019;28;20214;-33
2024/03/05 10:23:05;;;;;;;3.35;2.30;;;21.20;55.20;;;;;;4999286;28;20081;-33
2024/03/05 10:25:33;;;;;;;2.50;2.30;;;21.20;55.20;;;;;;5007585;28;20082;-33
2024/03/05 10:28:02;;;;;;;2.17;1.98;;;21.20;55.20;;;;;;5056451;28;20054;-35
2024/03/05 10:30:33;;;;;;;2.40;2.20;;;21.20;55.20;;;;;;5048513;28;20029;-33
2024/03/05 10:33:04;;;;;;;2.50;2.20;;;21.20;55.20;;;;;;5066254;28;20028;-33
2024/03/05 10:35:31;;;;;;;2.92;2.30;;;21.20;55.20;;;;;;5065715;28;20021;-34
2024/03/05 10:38:03;;;;;;;3.88;2.28;;;21.20;55.10;;;;;;5043528;28;20036;-32
2024/03/05 10:40:32;;;;;;;2.70;2.30;;;21.20;55.10;;;;;;5065732;28;20385;-32
2024/03/05 10:43:00;;;;;;;2.40;2.00;;;21.20;55.20;;;;;;5072977;28;20027;-33
2024/03/05 10:45:29;;;;;;;2.65;2.30;;;21.20;55.20;;;;;;5063556;28;20025;-33
2024/03/05 10:47:58;;;;;;;2.67;2.35;;;21.20;55.20;;;;;;5064574;28;20036;-32
2024/03/05 10:50:26;;;;;;;3.22;2.10;;;21.10;55.20;;;;;;5079580;28;20032;-33
2024/03/05 10:52:54;;;;;;;2.35;2.15;;;21.20;55.20;;;;;;5083112;28;20028;-33
2024/03/05 10:55:21;;;;;;;3.08;2.42;;;21.20;55.10;;;;;;5078860;28;20044;-34
2024/03/05 11:00:36;;;;;;;2.63;2.35;;;21.30;55.10;;;;;;5079006;28;20084;-33
2024/03/05 11:03:08;;;;;;;2.60;2.40;;;21.20;55.10;;;;;;5072455;28;20033;-34
2024/03/05 11:05:56;;;;;;;2.40;2.08;;;21.20;55.10;;;;;;5064066;28;20025;-33
2024/03/05 11:08:25;;;;;;;2.30;2.10;;;21.20;55.10;;;;;;5081451;28;20067;-33
2024/03/05 11:10:55;;;;;;;2.92;2.22;;;21.10;55.10;;;;;;5074889;28;20051;-33
2024/03/05 11:13:21;;;;;;;2.97;2.42;;;21.20;55.10;;;;;;5054931;28;20040;-33
2024/03/05 11:15:49;;;;;;;2.70;2.42;;;21.20;55.00;;;;;;5067571;28;20025;-37
2024/03/05 11:18:27;;;;;;;3.17;2.22;;;21.20;55.00;;;;;;5047443;28;20104;-33
2024/03/05 11:20:53;;;;;;;3.72;2.50;;;21.20;55.00;;;;;;5067356;28;20059;-33
2024/03/05 11:23:20;;;;;;;2.80;2.53;;;21.20;55.10;;;;;;5060922;28;20048;-34
2024/03/05 11:25:47;;;;;;;2.67;2.28;;;21.20;55.10;;;;;;5059075;28;20036;-33
2024/03/05 11:28:16;;;;;;;2.30;2.10;;;21.10;55.00;;;;;;5069412;28;21026;-33
2024/03/05 11:30:44;;;;;;;2.42;2.20;;;21.20;55.10;;;;;;5067319;28;20044;-33
2024/03/05 11:33:10;;;;;;;3.10;2.40;;;21.20;55.00;;;;;;5063574;28;20036;-33
2024/03/05 11:35:45;;;;;;;2.92;2.42;;;21.20;55.00;;;;;;5061975;28;20598;-34
2024/03/05 11:38:14;;;;;;;2.75;2.45;;;21.20;55.00;;;;;;5062278;28;20032;-32
2024/03/05 11:40:42;;;;;;;3.80;2.85;;;21.20;55.00;;;;;;5045429;28;20021;-33
2024/03/05 11:43:09;;;;;;;4.15;2.72;;;21.20;55.00;;;;;;5071320;28;20040;-33
2024/03/05 11:45:51;;;;;;;3.58;2.42;;;21.20;55.00;;;;;;5080015;28;20028;-33
2024/03/05 11:48:19;;;;;;;3.20;2.30;;;21.20;55.10;;;;;;5081271;28;20064;-34
2024/03/05 11:50:50;;;;;;;4.07;2.70;;;21.20;55.00;;;;;;5081056;28;20017;-33
2024/03/05 11:53:17;;;;;;;3.20;2.40;;;21.20;54.90;;;;;;5081617;28;20032;-35
2024/03/05 11:55:43;;;;;;;2.50;2.30;;;21.20;54.90;;;;;;5081706;28;20082;-34
2024/03/05 11:58:10;;;;;;;2.80;2.50;;;21.20;55.00;;;;;;5082052;28;20074;-33
2024/03/05 12:00:37;;;;;;;3.67;2.33;;;21.20;55.00;;;;;;5079300;28;20099;-34
2024/03/05 12:03:03;;;;;;;3.30;2.50;;;21.20;55.00;;;;;;5079054;28;20037;-33
2024/03/05 12:05:30;;;;;;;3.42;2.40;;;21.10;55.00;;;;;;5074031;28;20031;-34
2024/03/05 12:08:06;;;;;;;4.25;1.63;;;21.20;55.00;;;;;;5084894;28;20044;-34
2024/03/05 12:10:35;;;;;;;4.88;2.50;;;21.20;55.10;;;;;;5075368;28;20029;-35
2024/03/05 12:13:05;;;;;;;6.13;2.45;;;21.30;55.00;;;;;;5084413;28;20036;-35
2024/03/05 12:15:32;;;;;;;5.05;2.90;;;21.30;56.50;;;;;;5084030;28;20831;-34
2024/03/05 12:17:58;;;;;;;5.50;2.80;;;21.30;56.60;;;;;;5085715;28;20051;-34
2024/03/05 12:20:24;;;;;;;4.68;3.08;;;21.30;58.10;;;;;;5082321;28;20032;-34
2024/03/05 12:22:54;;;;;;;6.55;3.05;;;21.30;58.10;;;;;;5076699;28;20051;-34
2024/03/05 12:25:21;;;;;;;8.57;3.50;;;21.40;59.10;;;;;;5085354;28;20066;-34
2024/03/05 12:27:50;;;;;;;7.07;3.47;;;21.30;59.20;;;;;;5075025;28;20397;-34
2024/03/05 12:30:16;;;;;;;6.85;3.33;;;21.30;59.20;;;;;;5077306;28;20036;-34
2024/03/05 12:32:44;;;;;;;4.35;3.03;;;21.30;59.20;;;;;;5083001;28;20032;-34
2024/03/05 12:35:14;;;;;;;6.18;3.35;;;21.30;59.50;;;;;;5079188;28;20139;-34
2024/03/05 12:37:40;;;;;;;5.57;3.00;;;21.30;59.60;;;;;;5083695;28;20043;-33
2024/03/05 12:40:13;;;;;;;4.72;3.05;;;21.30;59.60;;;;;;5084674;28;20100;-33
2024/03/05 12:42:39;;;;;;;5.78;3.20;;;21.40;59.40;;;;;;5079692;28;20063;-33
2024/03/05 12:45:07;;;;;;;5.97;3.08;;;21.40;58.70;;;;;;5084876;28;20536;-33
2024/03/05 12:47:33;;;;;;;5.90;2.90;;;21.40;58.70;;;;;;5065466;28;20037;-33
2024/03/05 12:50:02;;;;;;;5.63;3.10;;;21.40;58.70;;;;;;5073782;28;20042;-42
2024/03/05 12:52:28;;;;;;;4.70;2.90;;;21.40;58.70;;;;;;5089762;28;20033;-33
2024/03/05 12:55:07;;;;;;;4.22;2.80;;;21.30;58.50;;;;;;5083454;28;20039;-33
2024/03/05 12:57:34;;;;;;;5.25;3.00;;;21.30;58.20;;;;;;5077188;28;20040;-34
2024/03/05 13:00:12;;;;;;;7.00;2.97;;;21.30;58.10;;;;;;5078334;28;20035;-33
2024/03/05 13:02:39;;;;;;;3.70;2.47;;;21.30;57.80;;;;;;5084455;28;20063;-34
2024/03/05 13:05:08;;;;;;;7.85;3.08;;;21.30;57.50;;;;;;5077798;28;20036;-34